Ambassador Norris — H9AH — position and weather

sailwx.info

Track history (hours):
 
Tides and Currents Weather Stations Pressure Air Temp Water Temp Dewpoint Dewpoint Depression Visibility Wind Speed Wind Dir Waves Ship Positions

Ambassador Norris

Last reported at 2017-Dec-21 19:25 UTC. Time now 2018-Feb-19 22:18 UTC.
Position N 23°34' E 123°03'.
Warning: this ship's position is months out of date.

Length 179 m; draft 10.9 m.

Type: Ship (hazmat cat B). MMSI: 355828000.

Date/timePositionNaut miles runAvg speedWind from/ knotsBaromVisibWave heightAir tempDewpointWater temp
2017-Dec-21 19:25N 23°34' E 123°03'613.8
2017-Dec-21 19:01N 23°39' E 123°05'713.6
2017-Dec-21 18:30N 23°45' E 123°09'713.6
2017-Dec-21 18:00N 23°51' E 123°12'713.8
2017-Dec-21 17:30N 23°58' E 123°15'714.0
2017-Dec-21 17:01N 24°04' E 123°18'714.1
2017-Dec-21 16:30N 24°11' E 123°21'713.8
2017-Dec-21 16:01N 24°17' E 123°25'713.4
2017-Dec-21 15:31N 24°23' E 123°27'713.2
2017-Dec-21 15:00N 24°29' E 123°30'612.9
2017-Dec-21 14:30N 24°35' E 123°33'713.2
2017-Dec-21 14:00N 24°41' E 123°36'713.5
2017-Dec-21 13:30N 24°47' E 123°38'714.2
2017-Dec-21 13:00N 24°54' E 123°42'  
Track history (hours):
 
Tides and Currents Weather Stations Pressure Air Temp Water Temp Dewpoint Dewpoint Depression Visibility Wind Speed Wind Dir Waves Ship Positions

Ambassador Norris

Last reported at 2017-Dec-21 19:25 UTC. Time now 2018-Feb-19 22:18 UTC.
Position N 23°34' E 123°03'.
Warning: this ship's position is months out of date.

Length 179 m; draft 10.9 m.

Type: Ship (hazmat cat B). MMSI: 355828000.

Date/timePositionNaut miles runAvg speedWind from/ knotsBaromVisibWave heightAir tempDewpointWater temp
2017-Dec-21 19:25N 23°34' E 123°03'613.8
2017-Dec-21 19:01N 23°39' E 123°05'713.6
2017-Dec-21 18:30N 23°45' E 123°09'713.6
2017-Dec-21 18:00N 23°51' E 123°12'713.8
2017-Dec-21 17:30N 23°58' E 123°15'714.0
2017-Dec-21 17:01N 24°04' E 123°18'714.1
2017-Dec-21 16:30N 24°11' E 123°21'713.8
2017-Dec-21 16:01N 24°17' E 123°25'713.4
2017-Dec-21 15:31N 24°23' E 123°27'713.2
2017-Dec-21 15:00N 24°29' E 123°30'612.9
2017-Dec-21 14:30N 24°35' E 123°33'713.2
2017-Dec-21 14:00N 24°41' E 123°36'713.5
2017-Dec-21 13:30N 24°47' E 123°38'714.2
2017-Dec-21 13:00N 24°54' E 123°42'  

Dump ship's entire track history